createdAt,value
2023-02-14T00:03:10.811Z,102003.06
2023-02-14T00:08:32.758Z,102009.91
2023-02-14T00:13:54.661Z,102008.16
2023-02-14T00:19:18.505Z,102026.03
2023-02-14T00:24:40.345Z,102021.72
2023-02-14T00:30:02.388Z,102036.22
2023-02-14T00:35:24.344Z,102032.91
2023-02-14T00:40:46.323Z,102031.13
2023-02-14T00:46:08.275Z,102041.22
2023-02-14T00:51:30.642Z,102032.53
2023-02-14T00:56:52.591Z,102042.84
2023-02-14T01:02:14.485Z,102038.34
2023-02-14T01:07:36.425Z,102017.75
2023-02-14T01:12:58.336Z,102030.59
2023-02-14T01:18:20.188Z,102028.81
2023-02-14T01:23:43.300Z,102029.75
2023-02-14T01:29:06.130Z,102031.41
2023-02-14T01:34:28.051Z,102029.63
2023-02-14T01:39:49.915Z,102026.91
2023-02-14T01:45:21.696Z,102035.34
2023-02-14T01:50:45.698Z,102035.38
2023-02-14T01:56:13.046Z,102037.97
2023-02-14T02:01:35.190Z,102025.94
2023-02-14T02:07:04.522Z,102032.56
2023-02-14T02:12:29.812Z,102046.25
2023-02-14T02:18:23.670Z,102041.97
2023-02-14T02:23:55.153Z,102043.53
2023-02-14T02:29:55.744Z,102040.97
2023-02-14T02:35:50.152Z,102053.63
2023-02-14T02:41:39.021Z,102046.78
2023-02-14T02:47:22.914Z,102051.03
2023-02-14T02:52:49.908Z,102053.53
2023-02-14T02:58:12.201Z,102039.56
2023-02-14T03:03:36.509Z,102057.75
2023-02-14T03:08:58.518Z,102060.06
2023-02-14T03:14:35.637Z,102068.59
2023-02-14T03:20:23.196Z,102074.41
2023-02-14T03:26:33.034Z,102070.72
2023-02-14T03:32:07.569Z,102082.50
2023-02-14T03:37:36.777Z,102080.81
2023-02-14T03:43:18.914Z,102081.47
2023-02-14T03:48:42.862Z,102072.88
2023-02-14T03:54:09.354Z,102081.31
2023-02-14T03:59:31.353Z,102084.13
2023-02-14T04:04:54.351Z,102080.50
2023-02-14T04:10:16.719Z,102071.19
2023-02-14T04:15:38.691Z,102072.66
2023-02-14T04:21:00.903Z,102079.47
2023-02-14T04:26:22.977Z,102090.66
2023-02-14T04:31:44.913Z,102084.34
2023-02-14T04:37:07.679Z,102087.19
2023-02-14T04:42:29.641Z,102097.53
2023-02-14T04:47:51.628Z,102102.38
2023-02-14T04:53:13.486Z,102108.59
2023-02-14T04:58:35.425Z,102121.25
2023-02-14T05:03:57.301Z,102109.16
2023-02-14T05:09:19.182Z,102103.00
2023-02-14T05:14:41.022Z,102116.97
2023-02-14T05:20:04.674Z,102124.25
2023-02-14T05:25:26.527Z,102130.41
2023-02-14T05:30:51.009Z,102126.09
2023-02-14T05:36:13.277Z,102146.56
2023-02-14T05:41:35.128Z,102138.19
2023-02-14T05:46:57.053Z,102118.44
2023-02-14T05:52:19.046Z,102133.31
2023-02-14T05:57:40.925Z,102140.84
2023-02-14T06:03:03.068Z,102148.38
2023-02-14T06:08:25.340Z,102154.34
2023-02-14T06:13:47.388Z,102162.16
2023-02-14T06:19:09.300Z,102160.31
2023-02-14T06:24:32.290Z,102171.47
2023-02-14T06:29:54.181Z,102168.03
2023-02-14T06:35:16.237Z,102174.00
2023-02-14T06:40:38.329Z,102171.66
2023-02-14T06:46:00.463Z,102173.06
2023-02-14T06:51:22.333Z,102165.84
2023-02-14T06:56:44.337Z,102171.41
2023-02-14T07:02:06.512Z,102164.47
2023-02-14T07:07:28.348Z,102170.69
2023-02-14T07:12:50.314Z,102175.16
2023-02-14T07:18:12.164Z,102169.03
2023-02-14T07:23:34.006Z,102178.75
2023-02-14T07:28:55.956Z,102190.28
2023-02-14T07:34:17.815Z,102184.41
2023-02-14T07:39:39.672Z,102189.72
2023-02-14T07:45:09.450Z,102196.78
2023-02-14T07:50:41.378Z,102208.66
2023-02-14T07:56:03.243Z,102209.66
2023-02-14T08:01:25.239Z,102222.31
2023-02-14T08:06:47.124Z,102231.22
2023-02-14T08:12:10.621Z,102216.50
2023-02-14T08:17:32.434Z,102231.06
2023-02-14T08:22:54.314Z,102242.50
2023-02-14T08:28:17.282Z,102223.63
2023-02-14T08:33:39.121Z,102230.22
2023-02-14T08:39:02.567Z,102217.03
2023-02-14T08:44:24.583Z,102245.44
2023-02-14T08:49:46.444Z,102243.63
2023-02-14T08:55:08.380Z,102244.16
2023-02-14T09:00:31.391Z,102242.28
2023-02-14T09:05:53.260Z,102256.53
2023-02-14T09:11:21.488Z,102243.28
2023-02-14T09:16:43.410Z,102248.47
2023-02-14T09:22:06.924Z,102222.56
2023-02-14T09:27:28.852Z,102252.03
2023-02-14T09:32:52.655Z,102250.56
2023-02-14T09:38:14.467Z,102252.31
2023-02-14T09:43:50.558Z,102262.66
2023-02-14T09:49:19.031Z,102248.16
2023-02-14T09:54:44.070Z,102270.81
2023-02-14T10:00:16.992Z,102265.53
2023-02-14T10:05:48.570Z,102255.13
2023-02-14T10:11:15.538Z,102243.19
2023-02-14T10:16:42.993Z,102247.34
2023-02-14T10:27:40.657Z,102236.88
2023-02-14T10:33:13.556Z,102254.34
2023-02-14T10:38:59.480Z,102251.75
2023-02-14T10:44:44.994Z,102242.78
2023-02-14T10:50:09.813Z,102260.88
2023-02-14T10:55:44.088Z,102260.59
2023-02-14T11:01:12.076Z,102255.38
2023-02-14T11:06:34.622Z,102256.88
2023-02-14T11:12:00.254Z,102253.72
2023-02-14T11:17:32.023Z,102245.75
2023-02-14T11:22:53.966Z,102239.53
2023-02-14T11:28:18.298Z,102239.78
2023-02-14T11:33:43.924Z,102217.22
2023-02-14T11:39:21.786Z,102239.97
2023-02-14T11:44:55.518Z,102240.88
2023-02-14T11:50:23.578Z,102235.56
2023-02-14T11:55:52.967Z,102206.66
2023-02-14T12:01:24.343Z,102209.06
2023-02-14T12:06:46.530Z,102223.41
2023-02-14T12:12:23.608Z,102224.41
2023-02-14T12:17:48.225Z,102214.75
2023-02-14T12:23:43.736Z,102220.16
2023-02-14T12:29:32.302Z,102213.06
2023-02-14T12:35:06.492Z,102198.97
2023-02-14T12:40:34.986Z,102216.00
2023-02-14T12:46:06.503Z,102202.41
2023-02-14T12:51:59.021Z,102198.28
2023-02-14T12:57:32.313Z,102197.31
2023-02-14T13:02:57.156Z,102194.75
2023-02-14T13:08:43.142Z,102200.69
2023-02-14T13:14:38.669Z,102197.31
2023-02-14T13:20:38.961Z,102180.78
2023-02-14T13:26:07.260Z,102203.41
2023-02-14T13:31:30.712Z,102209.63
2023-02-14T13:36:55.049Z,102207.03
2023-02-14T13:43:01.908Z,102210.50
2023-02-14T13:48:28.546Z,102198.63
2023-02-14T13:53:50.549Z,102198.63
2023-02-14T13:59:29.143Z,102194.38
2023-02-14T14:04:51.003Z,102189.25
2023-02-14T14:10:14.470Z,102195.34
2023-02-14T14:15:36.349Z,102185.78
2023-02-14T14:20:58.268Z,102179.03
2023-02-14T14:26:46.353Z,102189.28
2023-02-14T14:32:26.278Z,102173.00
2023-02-14T14:37:57.218Z,102172.06
2023-02-14T14:43:26.008Z,102199.09
2023-02-14T14:48:53.564Z,102199.84
2023-02-14T14:54:19.851Z,102180.28
2023-02-14T14:59:41.709Z,102178.50
2023-02-14T15:05:34.818Z,102195.44
2023-02-14T15:11:22.823Z,102199.81
2023-02-14T15:16:46.885Z,102191.13
2023-02-14T15:22:31.498Z,102192.63
2023-02-14T15:27:53.720Z,102202.13
2023-02-14T15:33:15.575Z,102184.91
2023-02-14T15:38:41.213Z,102193.56
2023-02-14T15:44:03.285Z,102196.88
2023-02-14T15:49:34.616Z,102189.06
2023-02-14T15:54:56.558Z,102204.31
2023-02-14T16:00:21.075Z,102212.13
2023-02-14T16:05:50.052Z,102211.03
2023-02-14T16:11:11.822Z,102225.16
2023-02-14T16:16:57.380Z,102222.94
2023-02-14T16:22:28.555Z,102212.94
2023-02-14T16:27:50.427Z,102232.44
2023-02-14T16:33:21.730Z,102233.53
2023-02-14T16:38:45.478Z,102251.41
2023-02-14T16:44:07.384Z,102231.50
2023-02-14T16:49:29.224Z,102248.56
2023-02-14T16:54:51.528Z,102249.16
2023-02-14T17:00:14.281Z,102258.38
2023-02-14T17:05:36.322Z,102253.97
2023-02-14T17:10:58.615Z,102260.84
2023-02-14T17:16:21.129Z,102267.50
2023-02-14T17:21:43.037Z,102267.25
2023-02-14T17:27:04.924Z,102268.78
2023-02-14T17:32:27.023Z,102257.38
2023-02-14T17:37:48.927Z,102278.00
2023-02-14T17:43:10.782Z,102271.91
2023-02-14T17:48:32.615Z,102273.56
2023-02-14T17:53:54.522Z,102282.72
2023-02-14T17:59:16.500Z,102284.31
2023-02-14T18:04:38.424Z,102283.41
2023-02-14T18:10:00.294Z,102276.22
2023-02-14T18:15:22.135Z,102278.03
2023-02-14T18:20:55.656Z,102275.19
2023-02-14T18:26:18.790Z,102273.34
2023-02-14T18:31:42.939Z,102270.81
2023-02-14T18:37:04.876Z,102276.72
2023-02-14T18:42:26.767Z,102279.22
2023-02-14T18:47:48.588Z,102273.09
2023-02-14T18:53:10.469Z,102265.09
2023-02-14T18:58:32.691Z,102284.63
2023-02-14T19:03:55.197Z,102264.72
2023-02-14T19:09:18.422Z,102258.59
2023-02-14T19:14:40.298Z,102251.66
2023-02-14T19:20:02.209Z,102272.22
2023-02-14T19:25:25.316Z,102273.03
2023-02-14T19:30:47.168Z,102272.69
2023-02-14T19:36:10.984Z,102282.88
2023-02-14T19:41:33.740Z,102281.81
2023-02-14T19:46:55.792Z,102280.03
2023-02-14T19:52:26.436Z,102290.28
2023-02-14T19:57:48.924Z,102273.91
2023-02-14T20:03:10.890Z,102284.94
2023-02-14T20:08:32.838Z,102273.78
2023-02-14T20:13:54.775Z,102286.63
2023-02-14T20:19:19.007Z,102286.44
2023-02-14T20:24:40.848Z,102281.16
2023-02-14T20:30:02.898Z,102287.28
2023-02-14T20:35:24.775Z,102280.34
2023-02-14T20:40:46.579Z,102281.03
2023-02-14T20:46:08.541Z,102276.78
2023-02-14T20:51:30.372Z,102282.81
2023-02-14T20:56:52.715Z,102276.78
2023-02-14T21:02:14.608Z,102286.91
2023-02-14T21:07:36.487Z,102277.19
2023-02-14T21:12:58.360Z,102283.25
2023-02-14T21:18:20.250Z,102292.59
2023-02-14T21:23:42.099Z,102290.00
2023-02-14T21:29:04.626Z,102297.66
2023-02-14T21:34:26.455Z,102299.56
2023-02-14T21:39:48.673Z,102295.72
2023-02-14T21:45:12.836Z,102295.06
2023-02-14T21:50:34.704Z,102292.09
2023-02-14T21:56:07.145Z,102286.28
2023-02-14T22:01:31.390Z,102295.34
2023-02-14T22:06:53.301Z,102273.00
2023-02-14T22:12:15.166Z,102292.97
2023-02-14T22:17:37.043Z,102289.88
2023-02-14T22:22:58.880Z,102284.88
2023-02-14T22:28:20.694Z,102282.53
2023-02-14T22:33:42.961Z,102262.66
2023-02-14T22:39:05.493Z,102276.88
2023-02-14T22:44:27.488Z,102275.81
2023-02-14T22:49:49.942Z,102278.91
2023-02-14T22:55:11.798Z,102280.88
2023-02-14T23:00:33.623Z,102281.66
2023-02-14T23:05:59.247Z,102286.22
2023-02-14T23:11:29.568Z,102267.38
2023-02-14T23:16:51.508Z,102280.41
2023-02-14T23:22:20.472Z,102276.38
2023-02-14T23:27:45.849Z,102266.06
2023-02-14T23:33:07.695Z,102272.16
2023-02-14T23:38:29.574Z,102268.91
2023-02-14T23:43:51.423Z,102266.09
2023-02-14T23:49:13.491Z,102269.63
2023-02-14T23:54:35.892Z,102272.06
2023-02-14T23:59:57.749Z,102273.84
